createdAt,value
2023-04-23T21:27:03.575Z,14.52
2023-04-23T21:30:16.896Z,14.43
2023-04-23T21:33:23.028Z,14.90
2023-04-23T21:36:28.353Z,15.00
2023-04-23T21:39:33.127Z,14.82
2023-04-23T21:42:37.817Z,15.30
2023-04-23T21:45:42.110Z,16.40
2023-04-23T21:48:50.303Z,16.67
2023-04-23T21:51:54.602Z,17.45
2023-04-23T21:54:58.627Z,16.08
2023-04-23T21:58:16.539Z,11.77
2023-04-23T22:01:22.303Z,16.98
2023-04-23T22:04:27.778Z,18.10
2023-04-23T22:07:32.286Z,18.17
2023-04-23T22:10:42.776Z,18.63
2023-04-23T22:13:46.955Z,18.17
2023-04-23T22:16:51.546Z,15.18
2023-04-23T22:19:56.093Z,19.80
2023-04-23T22:23:00.681Z,19.88
2023-04-23T22:26:04.813Z,20.47
2023-04-23T22:29:09.263Z,22.00
2023-04-23T22:32:13.725Z,19.90
2023-04-23T22:35:17.999Z,21.67
2023-04-23T22:38:22.561Z,21.85
2023-04-23T22:41:27.167Z,22.90
2023-04-23T22:44:31.375Z,21.93
2023-04-23T22:47:36.203Z,21.03
2023-04-23T22:50:42.632Z,18.02
2023-04-23T22:53:47.136Z,19.63
2023-04-23T22:56:52.043Z,17.08
2023-04-23T22:59:56.329Z,13.73
2023-04-23T23:03:00.688Z,19.60
2023-04-23T23:06:05.512Z,19.40
2023-04-23T23:09:10.767Z,20.98
2023-04-23T23:12:15.109Z,21.05
2023-04-23T23:15:19.620Z,21.02
2023-04-23T23:18:23.836Z,22.10
2023-04-23T23:21:28.321Z,21.63
2023-04-23T23:24:33.216Z,20.63
2023-04-23T23:30:42.345Z,19.95
2023-04-23T23:33:46.865Z,20.05
2023-04-23T23:36:51.769Z,20.83
2023-04-23T23:39:56.203Z,24.67
2023-04-23T23:43:00.643Z,22.23
2023-04-23T23:46:05.312Z,17.20
2023-04-23T23:49:09.833Z,22.02
2023-04-23T23:52:14.245Z,22.90
2023-04-23T23:55:18.704Z,24.75
2023-04-23T23:58:23.197Z,19.42
